Time;durP1;ratioP1;P1;durP2;ratioP2;P2;SDS_P1;SDS_P2;PMS_P1;PMS_P2;Temp;Humidity;BMP_temperature;BMP_pressure;BME280_temperature;BME280_humidity;BME280_pressure;Samples;Min_cycle;Max_cycle;Signal;HPM_P1;HPM_P2
2022/01/06 00:02:15;;;;;;;45.28;25.67;;;;;;;;;;5023107;28;20397;-72
2022/01/06 00:04:42;;;;;;;46.03;24.45;;;;;;;;;;5040550;28;20022;-72
2022/01/06 00:07:08;;;;;;;42.45;23.40;;;;;;;;;;5039933;28;20343;-72
2022/01/06 00:09:34;;;;;;;41.33;23.63;;;;;;;;;;5006447;28;20033;-72
2022/01/06 00:12:00;;;;;;;47.45;23.88;;;;;;;;;;5039800;28;20351;-72
2022/01/06 00:17:19;;;;;;;51.30;24.63;;;;;;;;;;5040334;28;20029;-72
2022/01/06 00:25:13;;;;;;;47.08;24.35;;;;;;;;;;5040209;28;20021;-72
2022/01/06 00:27:39;;;;;;;44.38;26.38;;;;;;;;;;5022075;28;20331;-72
2022/01/06 00:30:05;;;;;;;49.75;24.98;;;;;;;;;;5039544;28;20317;-72
2022/01/06 00:32:32;;;;;;;40.30;22.38;;;;;;;;;;5022139;28;20045;-72
2022/01/06 00:34:58;;;;;;;44.00;23.50;;;;;;;;;;5021845;28;20103;-72
2022/01/06 00:37:24;;;;;;;41.95;22.17;;;;;;;;;;5022550;28;20025;-72
2022/01/06 00:39:50;;;;;;;38.08;20.70;;;;;;;;;;5039431;28;20040;-72
2022/01/06 00:42:16;;;;;;;49.50;23.52;;;;;;;;;;5022183;28;20033;-72
2022/01/06 00:44:43;;;;;;;42.10;21.90;;;;;;;;;;5039307;28;20021;-72
2022/01/06 00:47:08;;;;;;;42.15;22.00;;;;;;;;;;5039129;28;20108;-72
2022/01/06 00:49:34;;;;;;;39.60;20.42;;;;;;;;;;5040087;28;20045;-72
2022/01/06 00:52:00;;;;;;;37.63;20.95;;;;;;;;;;5021488;28;20370;-72
2022/01/06 00:54:26;;;;;;;37.42;18.55;;;;;;;;;;5021729;28;20072;-72
2022/01/06 00:56:52;;;;;;;43.45;24.65;;;;;;;;;;5039836;28;20025;-72
2022/01/06 00:59:18;;;;;;;54.72;27.58;;;;;;;;;;5038918;28;20407;-72
2022/01/06 01:01:44;;;;;;;57.20;30.05;;;;;;;;;;5021760;28;20025;-72
2022/01/06 01:04:10;;;;;;;66.05;37.67;;;;;;;;;;5021358;28;20081;-72
2022/01/06 01:06:36;;;;;;;79.07;38.58;;;;;;;;;;5021873;28;20029;-72
2022/01/06 01:09:02;;;;;;;202.82;100.45;;;;;;;;;;5005332;28;20029;-72
2022/01/06 01:11:28;;;;;;;205.45;100.25;;;;;;;;;;5038933;28;20045;-72
2022/01/06 01:13:56;;;;;;;132.90;62.40;;;;;;;;;;5020506;28;20025;-72
2022/01/06 01:16:29;;;;;;;144.40;73.40;;;;;;;;;;5021476;28;20028;-72
2022/01/06 01:18:57;;;;;;;153.48;76.97;;;;;;;;;;5039184;28;20027;-72
2022/01/06 01:21:26;;;;;;;303.35;151.63;;;;;;;;;;5039010;28;20021;-72
2022/01/06 01:23:55;;;;;;;162.27;84.50;;;;;;;;;;5021464;28;20022;-72
2022/01/06 01:26:22;;;;;;;145.65;79.90;;;;;;;;;;5021220;28;20029;-72
2022/01/06 01:28:50;;;;;;;124.35;65.60;;;;;;;;;;5021326;28;20028;-72
2022/01/06 01:33:45;;;;;;;104.80;54.67;;;;;;;;;;5021174;28;20013;-72
2022/01/06 01:36:11;;;;;;;109.72;60.35;;;;;;;;;;5004685;28;20017;-72
2022/01/06 01:38:38;;;;;;;106.63;55.78;;;;;;;;;;5020932;28;20045;-72
2022/01/06 01:41:04;;;;;;;112.88;56.50;;;;;;;;;;5038282;28;20048;-72
2022/01/06 01:43:31;;;;;;;148.85;71.95;;;;;;;;;;5020713;28;20104;-72
2022/01/06 01:45:58;;;;;;;123.88;69.78;;;;;;;;;;5038546;28;20025;-72
2022/01/06 01:48:32;;;;;;;325.63;154.15;;;;;;;;;;5020527;28;20021;-71
2022/01/06 01:50:58;;;;;;;145.15;77.80;;;;;;;;;;5020538;28;20075;-72
2022/01/06 01:53:24;;;;;;;164.43;85.82;;;;;;;;;;5038363;28;20074;-71
2022/01/06 01:55:51;;;;;;;159.43;85.97;;;;;;;;;;5004056;28;20072;-72
2022/01/06 01:58:18;;;;;;;394.75;228.77;;;;;;;;;;5020160;28;20074;-72
2022/01/06 02:00:44;;;;;;;117.93;69.07;;;;;;;;;;5038132;28;20021;-72
2022/01/06 02:03:10;;;;;;;97.65;57.67;;;;;;;;;;5002713;28;20029;-72
2022/01/06 02:05:36;;;;;;;105.10;58.92;;;;;;;;;;5036713;28;20080;-72
2022/01/06 02:08:05;;;;;;;104.50;62.15;;;;;;;;;;5038053;28;20091;-72
2022/01/06 02:10:31;;;;;;;138.23;79.80;;;;;;;;;;5037717;28;20025;-72
2022/01/06 02:13:00;;;;;;;182.52;111.63;;;;;;;;;;5020408;28;20354;-72
2022/01/06 02:15:26;;;;;;;165.25;100.03;;;;;;;;;;5037511;28;20037;-72
2022/01/06 02:17:53;;;;;;;208.05;135.77;;;;;;;;;;5020253;28;20029;-72
2022/01/06 02:20:20;;;;;;;204.25;131.25;;;;;;;;;;5037517;28;20301;-72
2022/01/06 02:22:46;;;;;;;234.85;118.43;;;;;;;;;;5037102;28;20025;-72
2022/01/06 02:25:17;;;;;;;230.57;120.25;;;;;;;;;;5037583;28;20018;-72
2022/01/06 02:27:49;;;;;;;300.10;150.43;;;;;;;;;;5020594;28;20041;-72
2022/01/06 02:30:15;;;;;;;256.30;138.95;;;;;;;;;;5037876;28;20021;-71
2022/01/06 02:32:41;;;;;;;262.42;137.27;;;;;;;;;;5038280;28;20335;-72
2022/01/06 02:35:08;;;;;;;313.38;168.75;;;;;;;;;;5037647;28;20018;-71
2022/01/06 02:37:37;;;;;;;322.17;175.18;;;;;;;;;;5019042;28;20105;-71
2022/01/06 02:40:11;;;;;;;207.02;112.07;;;;;;;;;;5036770;28;20108;-72
2022/01/06 02:42:42;;;;;;;241.25;124.03;;;;;;;;;;5036895;28;20442;-72
2022/01/06 02:45:08;;;;;;;192.05;95.40;;;;;;;;;;5019417;28;20022;-72
2022/01/06 02:47:34;;;;;;;172.90;81.13;;;;;;;;;;5037164;28;20029;-72
2022/01/06 02:50:00;;;;;;;194.13;95.90;;;;;;;;;;5036656;28;20025;-71
2022/01/06 02:52:26;;;;;;;202.75;113.75;;;;;;;;;;5018635;28;20508;-71
2022/01/06 02:54:52;;;;;;;149.80;72.78;;;;;;;;;;5018699;28;20431;-71
2022/01/06 02:57:18;;;;;;;181.00;94.43;;;;;;;;;;5018477;28;20449;-71
2022/01/06 02:59:44;;;;;;;182.32;82.88;;;;;;;;;;5035710;28;20025;-71
2022/01/06 03:02:10;;;;;;;183.70;99.85;;;;;;;;;;5035469;28;20021;-71
2022/01/06 03:04:38;;;;;;;209.48;111.47;;;;;;;;;;5017286;28;20439;-71
2022/01/06 03:07:04;;;;;;;185.27;94.13;;;;;;;;;;5017858;28;20116;-71
2022/01/06 03:09:38;;;;;;;187.20;92.95;;;;;;;;;;5017861;28;20485;-71
2022/01/06 03:12:19;;;;;;;205.52;99.78;;;;;;;;;;5018393;28;20072;-71
2022/01/06 03:14:45;;;;;;;224.68;110.00;;;;;;;;;;5002152;28;20040;-71
2022/01/06 03:17:11;;;;;;;214.57;107.45;;;;;;;;;;5035738;28;20083;-71
2022/01/06 03:19:37;;;;;;;232.18;111.78;;;;;;;;;;5035323;28;20013;-71
2022/01/06 03:22:04;;;;;;;173.85;82.93;;;;;;;;;;5017563;28;20144;-71
2022/01/06 03:24:30;;;;;;;159.80;79.07;;;;;;;;;;5017760;28;20047;-72
2022/01/06 03:26:56;;;;;;;155.75;80.75;;;;;;;;;;5017894;28;20030;-72
2022/01/06 03:29:22;;;;;;;183.13;83.63;;;;;;;;;;5017821;28;20079;-72
2022/01/06 03:31:48;;;;;;;159.40;82.10;;;;;;;;;;5001563;28;20041;-72
2022/01/06 03:34:14;;;;;;;140.38;64.45;;;;;;;;;;5017866;28;20026;-71
2022/01/06 03:36:40;;;;;;;147.57;85.68;;;;;;;;;;5017610;28;20021;-72
2022/01/06 03:39:07;;;;;;;140.27;70.30;;;;;;;;;;5035566;28;20025;-71
2022/01/06 03:41:33;;;;;;;115.97;74.00;;;;;;;;;;5017438;28;20029;-71
2022/01/06 03:44:00;;;;;;;112.68;61.10;;;;;;;;;;5016521;28;20024;-71
2022/01/06 03:46:26;;;;;;;119.80;63.15;;;;;;;;;;5001122;28;20088;-71
2022/01/06 03:48:52;;;;;;;107.55;55.33;;;;;;;;;;5034942;28;20068;-71
2022/01/06 03:51:20;;;;;;;104.32;57.17;;;;;;;;;;5016891;28;20033;-71
2022/01/06 03:53:47;;;;;;;141.23;67.25;;;;;;;;;;5000703;28;20320;-71
2022/01/06 03:56:13;;;;;;;128.90;72.45;;;;;;;;;;5034758;28;20331;-72
2022/01/06 03:58:40;;;;;;;163.05;92.30;;;;;;;;;;5016116;28;20028;-72
2022/01/06 04:01:07;;;;;;;213.48;124.68;;;;;;;;;;5000137;28;20022;-72
2022/01/06 04:03:33;;;;;;;195.23;117.90;;;;;;;;;;5035128;28;20119;-72
2022/01/06 04:05:59;;;;;;;209.70;127.00;;;;;;;;;;5034081;28;20024;-72
2022/01/06 04:08:25;;;;;;;181.52;108.40;;;;;;;;;;5034600;28;20053;-73
2022/01/06 04:10:51;;;;;;;232.38;137.82;;;;;;;;;;5033345;28;20419;-71
2022/01/06 04:13:18;;;;;;;254.63;146.23;;;;;;;;;;5033934;28;20026;-72
2022/01/06 04:15:45;;;;;;;243.32;136.52;;;;;;;;;;4999699;28;20017;-71
2022/01/06 04:18:11;;;;;;;215.25;124.60;;;;;;;;;;5016391;28;20018;-72
2022/01/06 04:20:37;;;;;;;181.05;100.82;;;;;;;;;;5034193;28;20030;-71
2022/01/06 04:23:03;;;;;;;170.48;99.90;;;;;;;;;;5016206;28;20339;-71
2022/01/06 04:25:29;;;;;;;162.45;102.07;;;;;;;;;;5033177;28;20013;-71
2022/01/06 04:28:00;;;;;;;158.35;92.55;;;;;;;;;;5033512;28;20374;-71
2022/01/06 04:30:27;;;;;;;132.43;81.85;;;;;;;;;;5002904;28;20036;-71
2022/01/06 04:32:53;;;;;;;106.68;65.90;;;;;;;;;;5001924;28;20146;-72
2022/01/06 04:35:19;;;;;;;104.10;64.60;;;;;;;;;;5002676;28;20427;-71
2022/01/06 04:37:46;;;;;;;99.53;57.92;;;;;;;;;;5036653;28;20060;-71
2022/01/06 04:40:12;;;;;;;81.80;47.75;;;;;;;;;;5018822;28;20027;-71
2022/01/06 04:42:38;;;;;;;49.08;29.08;;;;;;;;;;5001912;28;20022;-71
2022/01/06 04:45:05;;;;;;;58.15;37.15;;;;;;;;;;5018179;28;20167;-71
2022/01/06 04:47:31;;;;;;;49.75;28.15;;;;;;;;;;5018487;28;20018;-72
2022/01/06 04:49:57;;;;;;;36.08;20.70;;;;;;;;;;5018373;28;20030;-71
2022/01/06 04:52:23;;;;;;;38.63;20.75;;;;;;;;;;5002107;28;20337;-71
2022/01/06 04:54:49;;;;;;;70.40;40.80;;;;;;;;;;5035785;28;20104;-71
2022/01/06 04:57:15;;;;;;;89.40;45.83;;;;;;;;;;5018480;28;20021;-72
2022/01/06 04:59:42;;;;;;;108.32;51.72;;;;;;;;;;5035149;28;20025;-71
2022/01/06 05:02:09;;;;;;;130.73;64.60;;;;;;;;;;5035452;28;20021;-71
2022/01/06 05:04:35;;;;;;;118.35;62.22;;;;;;;;;;5035267;28;20025;-71
2022/01/06 05:07:01;;;;;;;106.72;60.72;;;;;;;;;;5036164;28;20104;-71
2022/01/06 05:09:27;;;;;;;93.65;50.25;;;;;;;;;;5018179;28;20083;-71
2022/01/06 05:11:54;;;;;;;112.50;53.72;;;;;;;;;;5018168;28;20325;-71
2022/01/06 05:14:20;;;;;;;106.10;58.15;;;;;;;;;;5018505;28;20017;-71
2022/01/06 05:16:46;;;;;;;113.57;59.30;;;;;;;;;;5034414;28;20029;-72
2022/01/06 05:19:12;;;;;;;128.30;68.30;;;;;;;;;;5035456;28;20342;-72
2022/01/06 05:21:38;;;;;;;139.55;73.90;;;;;;;;;;5017653;28;20052;-72
2022/01/06 05:24:12;;;;;;;181.40;97.82;;;;;;;;;;5017947;28;20136;-72
2022/01/06 05:26:40;;;;;;;234.07;115.75;;;;;;;;;;5035561;28;20030;-72
2022/01/06 05:29:10;;;;;;;237.55;124.90;;;;;;;;;;5001198;28;20014;-72
2022/01/06 05:31:36;;;;;;;204.43;119.95;;;;;;;;;;5017565;28;20057;-73
2022/01/06 05:34:03;;;;;;;234.95;127.88;;;;;;;;;;5017078;28;20021;-73
2022/01/06 05:36:30;;;;;;;223.40;121.80;;;;;;;;;;5001756;28;20396;-72
2022/01/06 05:38:56;;;;;;;163.98;84.68;;;;;;;;;;5000610;28;20028;-72
2022/01/06 05:41:22;;;;;;;105.53;55.47;;;;;;;;;;5018009;28;20425;-72
2022/01/06 05:43:49;;;;;;;170.85;86.35;;;;;;;;;;5035006;28;20036;-72
2022/01/06 05:46:19;;;;;;;65.03;36.13;;;;;;;;;;5018069;28;20021;-71
2022/01/06 05:48:45;;;;;;;77.65;38.00;;;;;;;;;;5034817;28;20328;-72
2022/01/06 05:51:12;;;;;;;49.33;29.33;;;;;;;;;;5000895;28;20501;-72
2022/01/06 05:53:38;;;;;;;42.33;25.30;;;;;;;;;;5017095;28;20159;-72
2022/01/06 05:56:06;;;;;;;38.22;20.95;;;;;;;;;;5017150;28;20018;-72
2022/01/06 05:58:33;;;;;;;39.28;20.40;;;;;;;;;;5017356;28;20343;-72
2022/01/06 06:00:59;;;;;;;28.48;15.88;;;;;;;;;;5000984;28;20284;-72
2022/01/06 06:03:28;;;;;;;27.98;15.32;;;;;;;;;;5033243;28;20025;-72
2022/01/06 06:05:55;;;;;;;28.92;15.65;;;;;;;;;;5016305;28;20049;-72
2022/01/06 06:08:22;;;;;;;28.42;15.90;;;;;;;;;;5016843;28;20065;-72
2022/01/06 06:10:48;;;;;;;29.15;13.98;;;;;;;;;;5017023;28;20101;-71
2022/01/06 06:13:17;;;;;;;52.40;28.35;;;;;;;;;;5033332;28;20115;-71
2022/01/06 06:15:44;;;;;;;46.45;26.75;;;;;;;;;;4999894;28;20036;-72
2022/01/06 06:18:11;;;;;;;74.60;30.92;;;;;;;;;;5015710;28;20424;-71
2022/01/06 06:20:38;;;;;;;52.30;27.90;;;;;;;;;;5000136;28;20021;-71
2022/01/06 06:23:04;;;;;;;59.15;30.92;;;;;;;;;;5016007;28;20017;-71
2022/01/06 06:25:31;;;;;;;60.30;33.78;;;;;;;;;;5016289;28;20044;-71
2022/01/06 06:27:57;;;;;;;61.95;32.88;;;;;;;;;;5000552;28;20029;-71
2022/01/06 06:30:24;;;;;;;76.30;34.10;;;;;;;;;;5034560;28;20021;-71
2022/01/06 06:32:51;;;;;;;70.15;35.80;;;;;;;;;;5016852;28;20037;-71
2022/01/06 06:35:17;;;;;;;77.35;38.25;;;;;;;;;;5035186;28;20025;-71
2022/01/06 06:37:44;;;;;;;62.75;34.17;;;;;;;;;;5016769;28;20041;-71
2022/01/06 06:40:11;;;;;;;75.18;35.38;;;;;;;;;;5000214;28;20021;-71
2022/01/06 06:42:38;;;;;;;103.72;55.55;;;;;;;;;;5033676;28;20017;-71
2022/01/06 06:45:04;;;;;;;63.53;33.95;;;;;;;;;;5000041;28;20053;-71
2022/01/06 06:47:32;;;;;;;108.07;41.97;;;;;;;;;;5034189;28;20089;-71
2022/01/06 06:50:00;;;;;;;85.55;47.50;;;;;;;;;;5034679;28;20041;-71
2022/01/06 06:52:26;;;;;;;185.15;101.82;;;;;;;;;;5033779;28;20426;-71
2022/01/06 06:54:54;;;;;;;158.30;87.90;;;;;;;;;;5000661;28;20112;-71
2022/01/06 06:57:20;;;;;;;166.13;90.85;;;;;;;;;;5000983;28;20025;-71
2022/01/06 06:59:46;;;;;;;157.10;87.18;;;;;;;;;;5017417;28;20462;-71
2022/01/06 07:02:12;;;;;;;153.48;84.38;;;;;;;;;;5016826;28;20025;-71
2022/01/06 07:04:38;;;;;;;155.35;85.10;;;;;;;;;;5016408;28;20048;-71
2022/01/06 07:07:04;;;;;;;152.65;81.32;;;;;;;;;;5033074;28;20404;-71
2022/01/06 07:09:30;;;;;;;144.20;80.70;;;;;;;;;;5015513;28;20083;-71
2022/01/06 07:11:56;;;;;;;132.50;72.40;;;;;;;;;;5033438;28;20033;-71
2022/01/06 07:14:22;;;;;;;98.53;52.55;;;;;;;;;;5015454;28;20024;-71
2022/01/06 07:16:48;;;;;;;97.35;52.03;;;;;;;;;;5033920;28;20384;-71
2022/01/06 07:19:15;;;;;;;101.53;50.33;;;;;;;;;;5000458;28;20032;-71
2022/01/06 07:21:41;;;;;;;97.00;53.10;;;;;;;;;;5035142;28;20021;-71
2022/01/06 07:24:07;;;;;;;89.53;52.10;;;;;;;;;;5000395;28;20029;-71
2022/01/06 07:26:33;;;;;;;106.03;55.08;;;;;;;;;;5035461;28;20029;-70
2022/01/06 07:28:59;;;;;;;79.93;44.17;;;;;;;;;;5017788;28;20331;-71
2022/01/06 07:31:25;;;;;;;91.72;47.50;;;;;;;;;;5017543;28;20040;-71
2022/01/06 07:33:51;;;;;;;80.78;47.38;;;;;;;;;;5017331;28;20010;-71
2022/01/06 07:36:17;;;;;;;79.13;43.58;;;;;;;;;;5034591;28;20108;-71
2022/01/06 07:38:43;;;;;;;81.95;43.88;;;;;;;;;;5035747;28;20104;-71
2022/01/06 07:41:09;;;;;;;82.78;47.03;;;;;;;;;;5001601;28;20049;-71
2022/01/06 07:43:35;;;;;;;112.22;54.63;;;;;;;;;;5035006;28;20339;-71
2022/01/06 07:46:01;;;;;;;157.95;78.90;;;;;;;;;;5035607;28;20419;-71
2022/01/06 07:48:37;;;;;;;171.75;86.25;;;;;;;;;;5035443;28;20025;-72
2022/01/06 07:51:04;;;;;;;185.27;97.88;;;;;;;;;;5035242;28;20071;-71
2022/01/06 07:53:30;;;;;;;196.85;104.20;;;;;;;;;;5017797;28;20026;-71
2022/01/06 07:55:58;;;;;;;208.82;106.15;;;;;;;;;;5018391;28;20021;-74
2022/01/06 07:58:25;;;;;;;182.75;95.78;;;;;;;;;;5002547;28;20127;-71
2022/01/06 08:00:51;;;;;;;175.32;91.63;;;;;;;;;;5035747;28;20024;-72
2022/01/06 08:03:17;;;;;;;160.10;86.72;;;;;;;;;;5036663;28;20021;-71
2022/01/06 08:05:43;;;;;;;179.30;92.75;;;;;;;;;;5038771;28;20028;-71
2022/01/06 08:08:09;;;;;;;180.15;98.60;;;;;;;;;;5039031;28;20033;-71
2022/01/06 08:10:35;;;;;;;189.48;97.78;;;;;;;;;;5005353;28;20470;-71
2022/01/06 08:13:02;;;;;;;159.75;86.10;;;;;;;;;;5038553;28;20033;-71
2022/01/06 08:15:28;;;;;;;159.60;81.13;;;;;;;;;;5005845;28;20529;-72
2022/01/06 08:17:55;;;;;;;145.38;73.40;;;;;;;;;;5022518;28;20451;-71
2022/01/06 08:20:21;;;;;;;115.70;59.97;;;;;;;;;;5037968;28;20402;-73
2022/01/06 08:22:51;;;;;;;128.38;72.53;;;;;;;;;;5037735;28;20087;-72
2022/01/06 08:25:36;;;;;;;131.00;70.35;;;;;;;;;;5021713;28;20052;-72
2022/01/06 08:28:02;;;;;;;109.47;58.55;;;;;;;;;;5036660;28;20025;-72
2022/01/06 08:30:30;;;;;;;107.93;65.35;;;;;;;;;;5020844;28;20026;-73
2022/01/06 08:32:59;;;;;;;106.55;60.30;;;;;;;;;;5020941;28;20033;-72
2022/01/06 08:35:27;;;;;;;116.78;60.65;;;;;;;;;;5005714;28;20021;-71
2022/01/06 08:37:54;;;;;;;105.47;55.58;;;;;;;;;;5004984;28;20026;-71
2022/01/06 08:40:20;;;;;;;106.78;56.30;;;;;;;;;;5005742;28;20021;-72
2022/01/06 08:42:48;;;;;;;119.85;61.72;;;;;;;;;;5022441;28;20083;-72
2022/01/06 08:45:14;;;;;;;103.50;58.10;;;;;;;;;;5038151;28;20021;-71
2022/01/06 08:47:41;;;;;;;90.35;53.25;;;;;;;;;;5005404;28;20032;-73
2022/01/06 08:50:08;;;;;;;100.93;54.97;;;;;;;;;;5038584;28;20363;-72
2022/01/06 08:52:36;;;;;;;93.72;58.30;;;;;;;;;;5038570;28;20328;-72
2022/01/06 08:55:05;;;;;;;104.50;54.65;;;;;;;;;;5004390;28;20022;-72
2022/01/06 08:57:33;;;;;;;74.88;40.88;;;;;;;;;;5021105;28;20071;-73
2022/01/06 09:00:01;;;;;;;82.95;52.33;;;;;;;;;;5020725;28;20017;-72
2022/01/06 09:02:29;;;;;;;79.90;41.83;;;;;;;;;;5004644;28;20116;-73
2022/01/06 09:04:56;;;;;;;82.22;47.40;;;;;;;;;;5027134;23;20056;-72
2022/01/06 09:07:25;;;;;;;82.82;45.03;;;;;;;;;;5020315;28;20056;-72
2022/01/06 09:09:51;;;;;;;79.53;47.58;;;;;;;;;;5020892;28;20022;-72
2022/01/06 09:12:18;;;;;;;84.35;47.17;;;;;;;;;;5021181;28;20033;-72
2022/01/06 09:14:45;;;;;;;74.93;43.60;;;;;;;;;;5021513;28;20420;-71
2022/01/06 09:17:12;;;;;;;77.53;43.45;;;;;;;;;;5004906;28;20030;-71
2022/01/06 09:19:39;;;;;;;77.28;45.00;;;;;;;;;;5021160;28;20036;-72
2022/01/06 09:22:05;;;;;;;72.88;43.75;;;;;;;;;;5038694;28;20021;-71
2022/01/06 09:24:31;;;;;;;74.28;43.15;;;;;;;;;;5006123;28;20179;-71
2022/01/06 09:26:58;;;;;;;76.38;41.78;;;;;;;;;;5024356;28;20419;-71
2022/01/06 09:29:25;;;;;;;74.10;40.97;;;;;;;;;;5021298;28;20024;-71
2022/01/06 09:31:51;;;;;;;75.22;40.65;;;;;;;;;;5020863;28;20030;-72
2022/01/06 09:34:17;;;;;;;66.25;39.05;;;;;;;;;;5038681;28;20374;-71
2022/01/06 09:36:44;;;;;;;70.00;39.30;;;;;;;;;;5020777;28;20080;-72
2022/01/06 09:39:11;;;;;;;72.25;39.33;;;;;;;;;;5004640;28;20027;-72
2022/01/06 09:41:41;;;;;;;80.82;41.28;;;;;;;;;;5021051;28;20414;-72
2022/01/06 09:44:08;;;;;;;71.72;41.25;;;;;;;;;;5039297;28;20024;-72
2022/01/06 09:46:35;;;;;;;69.00;41.83;;;;;;;;;;4988944;28;20108;-71
2022/01/06 09:49:01;;;;;;;67.90;40.67;;;;;;;;;;5021371;28;20060;-71
2022/01/06 09:51:28;;;;;;;74.53;42.85;;;;;;;;;;5038345;28;20470;-72
2022/01/06 09:53:56;;;;;;;68.80;36.22;;;;;;;;;;5020444;28;20013;-72
2022/01/06 09:56:24;;;;;;;68.57;38.35;;;;;;;;;;5020717;28;20045;-72
2022/01/06 09:58:50;;;;;;;69.30;39.95;;;;;;;;;;5004398;28;20033;-72
2022/01/06 10:01:16;;;;;;;75.38;40.33;;;;;;;;;;5038063;28;20025;-71
2022/01/06 10:03:45;;;;;;;77.18;40.90;;;;;;;;;;5020776;28;20018;-73
2022/01/06 10:06:13;;;;;;;80.30;41.63;;;;;;;;;;5020997;28;20450;-71
2022/01/06 10:08:40;;;;;;;77.95;44.83;;;;;;;;;;5004509;28;20021;-73
2022/01/06 10:11:10;;;;;;;75.25;38.47;;;;;;;;;;5037738;28;20025;-72
2022/01/06 10:13:37;;;;;;;67.95;35.08;;;;;;;;;;5038342;28;20017;-72
2022/01/06 10:16:11;;;;;;;60.90;34.85;;;;;;;;;;4990336;28;20026;-72
2022/01/06 10:18:38;;;;;;;67.07;37.25;;;;;;;;;;5020382;28;20025;-72
2022/01/06 10:21:14;;;;;;;68.22;37.75;;;;;;;;;;5020985;28;20450;-71
2022/01/06 10:23:40;;;;;;;64.65;35.72;;;;;;;;;;5038689;28;20079;-72
2022/01/06 10:26:13;;;;;;;61.83;36.08;;;;;;;;;;5003164;28;20414;-71
2022/01/06 10:28:40;;;;;;;61.65;34.65;;;;;;;;;;5037911;28;20071;-72
2022/01/06 10:31:07;;;;;;;66.35;36.05;;;;;;;;;;5004284;28;20025;-72
2022/01/06 10:33:37;;;;;;;58.03;34.33;;;;;;;;;;5020992;28;20051;-72
2022/01/06 10:36:05;;;;;;;56.83;30.67;;;;;;;;;;5006073;28;20040;-73
2022/01/06 10:38:36;;;;;;;54.17;31.88;;;;;;;;;;5021471;28;20116;-75
2022/01/06 10:41:14;;;;;;;62.45;33.25;;;;;;;;;;5019990;28;20032;-71
2022/01/06 10:43:50;;;;;;;60.35;33.20;;;;;;;;;;5003936;28;20032;-71
2022/01/06 10:46:29;;;;;;;57.40;31.40;;;;;;;;;;5019873;28;20022;-72
2022/01/06 10:49:01;;;;;;;62.47;33.58;;;;;;;;;;5003760;28;20032;-72
2022/01/06 10:51:31;;;;;;;60.17;36.85;;;;;;;;;;5037625;28;20555;-72
2022/01/06 10:53:58;;;;;;;58.70;32.80;;;;;;;;;;5019960;28;20080;-71
2022/01/06 10:56:27;;;;;;;51.38;31.40;;;;;;;;;;5003424;28;20029;-72
2022/01/06 10:58:56;;;;;;;56.10;34.80;;;;;;;;;;5020146;28;20021;-72
2022/01/06 11:01:22;;;;;;;54.40;33.17;;;;;;;;;;5019771;28;20021;-72
2022/01/06 11:03:49;;;;;;;57.33;33.45;;;;;;;;;;5003705;28;20018;-72
2022/01/06 11:06:16;;;;;;;59.85;37.25;;;;;;;;;;5038302;28;20033;-72
2022/01/06 11:08:43;;;;;;;53.42;35.10;;;;;;;;;;5020027;28;20120;-72
2022/01/06 11:13:41;;;;;;;61.72;35.03;;;;;;;;;;5019868;28;20029;-72
2022/01/06 11:16:09;;;;;;;56.58;33.53;;;;;;;;;;5036989;28;20020;-71
2022/01/06 11:18:38;;;;;;;55.55;33.92;;;;;;;;;;5018903;28;20022;-71
2022/01/06 11:21:09;;;;;;;58.47;32.03;;;;;;;;;;5003762;28;20392;-72
2022/01/06 11:23:36;;;;;;;53.55;31.45;;;;;;;;;;5019725;28;20025;-72
2022/01/06 11:26:07;;;;;;;77.70;32.60;;;;;;;;;;5019687;28;20022;-72
2022/01/06 11:28:35;;;;;;;54.28;32.08;;;;;;;;;;4987686;28;20045;-72
2022/01/06 11:31:15;;;;;;;50.80;30.30;;;;;;;;;;5020675;28;20032;-72
2022/01/06 11:33:43;;;;;;;83.57;44.65;;;;;;;;;;5020601;28;20025;-72
2022/01/06 11:36:24;;;;;;;84.97;48.80;;;;;;;;;;5019340;28;20028;-72
2022/01/06 11:38:52;;;;;;;112.43;58.72;;;;;;;;;;5023777;28;20107;-72
2022/01/06 11:41:25;;;;;;;107.47;59.03;;;;;;;;;;5007698;28;20017;-72
2022/01/06 11:43:51;;;;;;;115.78;61.00;;;;;;;;;;5023167;28;20080;-72
2022/01/06 11:46:18;;;;;;;97.68;52.55;;;;;;;;;;5041610;28;20083;-72
2022/01/06 11:48:45;;;;;;;68.68;40.92;;;;;;;;;;5024231;28;20400;-72
2022/01/06 11:51:22;;;;;;;87.43;47.03;;;;;;;;;;5023858;28;20025;-72
2022/01/06 11:53:48;;;;;;;96.43;48.95;;;;;;;;;;5024521;28;20025;-72
2022/01/06 11:56:15;;;;;;;92.25;53.53;;;;;;;;;;5040457;28;20346;-72
2022/01/06 11:58:42;;;;;;;122.90;62.90;;;;;;;;;;5006712;28;20367;-71
2022/01/06 12:01:13;;;;;;;113.82;62.15;;;;;;;;;;5022815;28;20040;-72
2022/01/06 12:03:40;;;;;;;111.05;60.50;;;;;;;;;;5022916;28;20014;-72
2022/01/06 12:06:06;;;;;;;117.80;62.00;;;;;;;;;;5040291;28;20033;-72
2022/01/06 12:08:34;;;;;;;108.03;56.58;;;;;;;;;;5024422;28;20024;-72
2022/01/06 12:11:00;;;;;;;95.45;53.30;;;;;;;;;;5023334;28;20434;-72
2022/01/06 12:13:27;;;;;;;104.97;52.67;;;;;;;;;;5040237;28;20439;-72
2022/01/06 12:15:55;;;;;;;101.43;51.70;;;;;;;;;;5023864;28;20017;-72
2022/01/06 12:18:23;;;;;;;87.40;48.17;;;;;;;;;;5009456;28;20018;-73
2022/01/06 12:20:50;;;;;;;81.20;45.33;;;;;;;;;;5007480;28;20022;-72
2022/01/06 12:23:18;;;;;;;90.43;50.63;;;;;;;;;;5040521;28;20022;-72
2022/01/06 12:25:55;;;;;;;94.57;54.97;;;;;;;;;;5023213;28;20041;-72
2022/01/06 12:28:21;;;;;;;92.07;54.50;;;;;;;;;;5039780;28;20013;-72
2022/01/06 12:30:48;;;;;;;78.63;49.72;;;;;;;;;;5022413;28;20407;-72
2022/01/06 12:33:19;;;;;;;94.65;55.25;;;;;;;;;;5006561;28;20037;-72
2022/01/06 12:35:48;;;;;;;96.28;57.97;;;;;;;;;;5040866;28;20089;-72
2022/01/06 12:38:22;;;;;;;94.60;54.53;;;;;;;;;;5008146;28;20112;-73
2022/01/06 12:40:48;;;;;;;110.28;61.00;;;;;;;;;;5006089;28;20087;-73
2022/01/06 12:43:19;;;;;;;108.28;60.35;;;;;;;;;;5041182;28;20029;-72
2022/01/06 12:45:46;;;;;;;94.88;57.92;;;;;;;;;;5023137;28;20017;-72
2022/01/06 12:48:13;;;;;;;109.45;62.78;;;;;;;;;;5038881;28;20048;-73
2022/01/06 12:50:49;;;;;;;145.18;79.57;;;;;;;;;;5007273;28;20017;-73
2022/01/06 12:53:27;;;;;;;196.23;94.88;;;;;;;;;;5015884;28;20255;-74
2022/01/06 12:55:54;;;;;;;178.77;93.10;;;;;;;;;;5005723;28;20025;-73
2022/01/06 12:58:24;;;;;;;191.73;100.88;;;;;;;;;;5021850;28;20028;-73
2022/01/06 13:00:58;;;;;;;158.40;84.47;;;;;;;;;;5036549;28;20013;-73
2022/01/06 13:03:30;;;;;;;157.95;95.18;;;;;;;;;;5007444;28;20022;-73
2022/01/06 13:05:58;;;;;;;147.57;79.32;;;;;;;;;;5022802;28;20033;-72
2022/01/06 13:08:24;;;;;;;145.02;83.13;;;;;;;;;;5021949;28;20036;-73
2022/01/06 13:11:02;;;;;;;160.07;94.22;;;;;;;;;;5040169;28;20045;-73
2022/01/06 13:13:47;;;;;;;170.32;102.13;;;;;;;;;;5021626;28;20402;-73
2022/01/06 13:16:19;;;;;;;152.18;83.30;;;;;;;;;;5021217;28;20324;-72
2022/01/06 13:19:15;;;;;;;140.17;79.43;;;;;;;;;;5038277;28;20343;-74
2022/01/06 13:21:59;;;;;;;145.98;79.22;;;;;;;;;;5001820;28;20132;-73
2022/01/06 13:24:43;;;;;;;159.32;83.35;;;;;;;;;;5015088;28;20030;-74
2022/01/06 13:27:31;;;;;;;132.82;73.88;;;;;;;;;;5018889;28;20135;-74
2022/01/06 13:30:03;;;;;;;115.82;64.03;;;;;;;;;;5022304;28;20025;-73
2022/01/06 13:32:31;;;;;;;122.20;67.35;;;;;;;;;;5006810;28;20124;-72
2022/01/06 13:37:56;;;;;;;119.53;66.85;;;;;;;;;;5056748;28;20059;-73
2022/01/06 13:40:26;;;;;;;129.98;69.90;;;;;;;;;;5024509;28;20025;-74
2022/01/06 13:42:58;;;;;;;120.68;72.03;;;;;;;;;;5046461;22;20049;-73
2022/01/06 13:45:37;;;;;;;100.13;58.55;;;;;;;;;;5038515;28;20108;-73
2022/01/06 13:48:30;;;;;;;113.97;61.63;;;;;;;;;;5021136;28;20036;-73
2022/01/06 13:51:08;;;;;;;99.63;59.80;;;;;;;;;;5020769;28;20021;-71
2022/01/06 13:53:42;;;;;;;94.03;56.08;;;;;;;;;;5036638;28;20131;-72
2022/01/06 13:56:14;;;;;;;113.93;61.97;;;;;;;;;;5020556;28;20145;-72
2022/01/06 13:58:44;;;;;;;98.38;59.65;;;;;;;;;;5037057;28;20095;-72
2022/01/06 14:01:21;;;;;;;97.10;55.42;;;;;;;;;;5034715;28;20056;-71
2022/01/06 14:03:53;;;;;;;83.75;51.35;;;;;;;;;;5034471;28;20037;-74
2022/01/06 14:06:28;;;;;;;89.20;50.05;;;;;;;;;;5028118;23;20197;-74
2022/01/06 14:09:07;;;;;;;91.60;51.40;;;;;;;;;;5056485;28;20385;-71
2022/01/06 14:11:33;;;;;;;96.53;56.75;;;;;;;;;;5057639;28;20040;-73
2022/01/06 14:14:10;;;;;;;96.07;54.88;;;;;;;;;;5056085;28;20044;-72
2022/01/06 14:16:43;;;;;;;93.80;58.00;;;;;;;;;;5041794;28;20017;-73
2022/01/06 14:19:12;;;;;;;92.65;58.92;;;;;;;;;;5039660;28;20079;-72
2022/01/06 14:21:42;;;;;;;103.15;58.05;;;;;;;;;;5051275;28;20428;-72
2022/01/06 14:24:09;;;;;;;101.75;56.25;;;;;;;;;;5055204;28;20031;-72
2022/01/06 14:26:36;;;;;;;104.90;56.95;;;;;;;;;;5057684;28;20021;-72
2022/01/06 14:29:25;;;;;;;101.07;55.20;;;;;;;;;;5045679;23;20049;-72
2022/01/06 14:31:54;;;;;;;89.82;49.80;;;;;;;;;;5033256;28;20038;-72